Hlavní strana
METAR-TAF:

METAR-TAF

Letiště :

Gatlinburg, Tennessee, Spojené státy americké

zeměpisná šířka: 35-51-28N, zeměpisná délka: 083-31-43W, výška: 309 m

Aktuální stav počasí

Zpráva byla vytvořena před 14 minutami, v 17:35 UTC
Bezvětří
Teplota 9°C
Vlhkost vzduchu 93%
Tlak 1020 hPa
Viditelnost: 12.9 km
Zataženo ve výšce 500 ft

METAR: KGKT 181735Z AUTO 00000KT 8SM OVC005 09/08 A3013 RMK A01

Čas: 11:49 (17:49 UTC)


TAF: chybějící

Stav a předpovědi počasí z více než 4 000 letišť (zprávy METAR a TAF).

Červené a žluté tečky na mapě představují dostupné meteorologické stanice.

Když kurzor umístíte na tečku, zobrazí se název stanice.

Pak kliknutím zobrazíte stav a předpověď počasí.

Chcete-li změnit mapu, kliknutím na zelené tlačítko se znaménkem +mapu přiblížíte, kliknutím na zelené tlačítko se znaménkem – mapu oddálíte a kliknutím na zelené šipky přejdete na sousední mapy.


METAR-TAF: